createdAt,value
2023-05-21T00:00:49.571Z,10.42
2023-05-21T00:03:35.333Z,10.30
2023-05-21T00:06:21.286Z,10.84
2023-05-21T00:09:07.341Z,11.41
2023-05-21T00:11:53.019Z,10.71
2023-05-21T00:14:38.488Z,11.87
2023-05-21T00:17:24.038Z,11.75
2023-05-21T00:20:09.869Z,11.02
2023-05-21T00:22:55.689Z,10.69
2023-05-21T00:25:40.997Z,11.68
2023-05-21T00:28:26.542Z,12.03
2023-05-21T00:31:12.363Z,10.95
2023-05-21T00:33:58.218Z,12.06
2023-05-21T00:36:45.277Z,11.83
2023-05-21T00:39:31.609Z,11.58
2023-05-21T00:42:17.448Z,11.75
2023-05-21T00:45:03.408Z,11.49
2023-05-21T00:47:49.873Z,11.42
2023-05-21T00:50:36.161Z,10.16
2023-05-21T00:53:22.690Z,10.94
2023-05-21T00:56:08.643Z,11.13
2023-05-21T00:58:55.867Z,11.27
2023-05-21T01:01:41.971Z,10.95
2023-05-21T01:04:27.752Z,10.50
2023-05-21T01:07:13.736Z,10.84
2023-05-21T01:09:59.216Z,10.69
2023-05-21T01:12:47.851Z,10.23
2023-05-21T01:15:33.349Z,10.32
2023-05-21T01:18:20.237Z,10.84
2023-05-21T01:21:06.339Z,9.15
2023-05-21T01:23:52.367Z,9.83
2023-05-21T01:26:37.993Z,9.99
2023-05-21T01:29:23.696Z,10.24
2023-05-21T01:32:28.325Z,11.13
2023-05-21T01:35:25.073Z,10.22
2023-05-21T01:38:35.738Z,11.16
2023-05-21T01:41:22.385Z,9.51
2023-05-21T01:44:09.616Z,11.04
2023-05-21T01:46:57.297Z,10.56
2023-05-21T01:49:42.917Z,10.35
2023-05-21T01:52:28.550Z,10.75
2023-05-21T01:55:14.210Z,9.59
2023-05-21T01:58:01.994Z,10.08
2023-05-21T02:00:47.638Z,10.27
2023-05-21T02:03:33.358Z,10.78
2023-05-21T02:06:18.838Z,10.53
2023-05-21T02:09:04.349Z,10.92
2023-05-21T02:11:49.730Z,9.68
2023-05-21T02:14:34.984Z,10.65
2023-05-21T02:17:20.480Z,9.96
2023-05-21T02:20:06.805Z,10.85
2023-05-21T02:22:52.129Z,10.09
2023-05-21T02:25:37.421Z,10.59
2023-05-21T02:28:23.399Z,9.80
2023-05-21T02:31:09.166Z,10.29
2023-05-21T02:33:54.407Z,10.78
2023-05-21T02:36:40.133Z,9.67
2023-05-21T02:39:25.615Z,10.83
2023-05-21T02:42:11.718Z,10.44
2023-05-21T02:44:56.852Z,9.83
2023-05-21T02:47:42.478Z,10.39
2023-05-21T02:50:28.150Z,8.51
2023-05-21T02:53:16.713Z,9.27
2023-05-21T02:56:02.296Z,9.74
2023-05-21T02:58:48.067Z,10.01
2023-05-21T03:01:33.335Z,8.81
2023-05-21T03:04:18.709Z,10.30
2023-05-21T03:07:07.320Z,10.18
2023-05-21T03:09:53.035Z,8.93
2023-05-21T03:12:38.535Z,9.96
2023-05-21T03:15:24.077Z,10.07
2023-05-21T03:18:10.515Z,8.77
2023-05-21T03:20:55.909Z,9.99
2023-05-21T03:23:42.051Z,9.97
2023-05-21T03:26:27.540Z,10.20
2023-05-21T03:29:12.937Z,8.59
2023-05-21T03:32:00.904Z,10.26
2023-05-21T03:34:46.404Z,9.14
2023-05-21T03:37:33.568Z,9.87
2023-05-21T03:40:18.984Z,9.26
2023-05-21T03:43:04.372Z,9.59
2023-05-21T03:45:49.829Z,9.50
2023-05-21T03:48:58.685Z,8.60
2023-05-21T03:51:46.110Z,10.00
2023-05-21T03:54:34.853Z,9.00
2023-05-21T03:57:24.263Z,9.10
2023-05-21T04:00:09.828Z,9.84
2023-05-21T04:03:01.306Z,7.73
2023-05-21T04:05:46.861Z,10.09
2023-05-21T04:08:32.312Z,9.77
2023-05-21T04:11:17.756Z,10.27
2023-05-21T04:14:03.363Z,10.25
2023-05-21T04:16:48.830Z,9.43
2023-05-21T04:19:34.880Z,10.22
2023-05-21T04:22:22.588Z,9.83
2023-05-21T04:25:08.479Z,9.75
2023-05-21T04:27:56.328Z,10.13
2023-05-21T04:30:41.733Z,8.96
2023-05-21T04:33:27.211Z,10.22
2023-05-21T04:36:12.482Z,9.76
2023-05-21T04:38:57.870Z,9.01
2023-05-21T04:41:43.096Z,9.28
2023-05-21T04:44:29.886Z,8.47
2023-05-21T04:47:19.336Z,8.96
2023-05-21T04:50:07.059Z,9.91
2023-05-21T04:52:52.453Z,9.04
2023-05-21T04:55:38.183Z,10.23
2023-05-21T04:58:23.612Z,10.08
2023-05-21T05:01:09.417Z,10.36
2023-05-21T05:03:55.063Z,10.85
2023-05-21T05:06:40.639Z,9.88
2023-05-21T05:09:26.251Z,10.24
2023-05-21T05:12:12.097Z,10.22
2023-05-21T05:14:59.454Z,8.78
2023-05-21T05:17:46.219Z,10.66
2023-05-21T05:20:32.108Z,10.72
2023-05-21T05:23:20.999Z,11.03
2023-05-21T05:26:06.194Z,10.00
2023-05-21T05:28:51.735Z,10.99
2023-05-21T05:31:37.855Z,11.17
2023-05-21T05:34:23.403Z,10.70
2023-05-21T05:37:08.763Z,10.60
2023-05-21T05:39:54.342Z,11.58
2023-05-21T05:42:40.236Z,10.58
2023-05-21T05:45:30.403Z,11.31
2023-05-21T05:48:16.056Z,11.81
2023-05-21T05:51:01.461Z,10.03
2023-05-21T05:53:47.951Z,11.05
2023-05-21T05:56:33.218Z,11.35
2023-05-21T05:59:19.028Z,11.34
2023-05-21T06:02:08.606Z,11.60
2023-05-21T06:04:53.996Z,12.05
2023-05-21T06:07:40.389Z,10.35
2023-05-21T06:10:26.021Z,10.94
2023-05-21T06:13:11.312Z,11.76
2023-05-21T06:15:56.950Z,11.69
2023-05-21T06:18:42.284Z,11.92
2023-05-21T06:21:27.721Z,11.44
2023-05-21T06:24:13.592Z,11.86
2023-05-21T06:26:59.172Z,12.50
2023-05-21T06:29:44.593Z,12.64
2023-05-21T06:32:30.211Z,12.86
2023-05-21T06:35:15.761Z,12.00
2023-05-21T06:38:01.512Z,12.78
2023-05-21T06:40:47.047Z,12.59
2023-05-21T06:43:39.840Z,13.33
2023-05-21T06:46:47.956Z,11.70
2023-05-21T06:49:33.304Z,13.46
2023-05-21T06:52:18.937Z,12.18
2023-05-21T06:55:05.284Z,12.31
2023-05-21T06:58:08.892Z,13.23
2023-05-21T07:00:54.380Z,13.58
2023-05-21T07:03:40.829Z,12.48
2023-05-21T07:06:27.409Z,13.16
2023-05-21T07:09:12.931Z,14.36
2023-05-21T07:11:58.395Z,13.99
2023-05-21T07:14:43.793Z,14.06
2023-05-21T07:17:29.198Z,14.17
2023-05-21T07:20:14.864Z,14.45
2023-05-21T07:23:03.610Z,13.46
2023-05-21T07:25:49.219Z,12.66
2023-05-21T07:28:34.698Z,13.42
2023-05-21T07:31:20.219Z,12.98
2023-05-21T07:34:09.163Z,13.22
2023-05-21T07:36:54.840Z,13.42
2023-05-21T07:39:40.486Z,14.08
2023-05-21T07:42:27.363Z,14.07
2023-05-21T07:45:15.242Z,13.72
2023-05-21T07:48:03.007Z,14.16
2023-05-21T07:50:51.364Z,14.37
2023-05-21T07:53:38.059Z,14.22
2023-05-21T07:56:27.225Z,13.60
2023-05-21T07:59:14.715Z,14.33
2023-05-21T08:02:00.387Z,14.47
2023-05-21T08:04:46.032Z,14.50
2023-05-21T08:07:32.601Z,13.51
2023-05-21T08:10:19.461Z,14.68
2023-05-21T08:13:07.239Z,14.07
2023-05-21T08:15:53.573Z,14.76
2023-05-21T08:18:40.043Z,15.04
2023-05-21T08:21:25.721Z,15.02
2023-05-21T08:24:10.940Z,13.51
2023-05-21T08:26:56.713Z,14.73
2023-05-21T08:29:43.121Z,13.84
2023-05-21T08:32:29.318Z,14.90
2023-05-21T08:35:14.783Z,15.08
2023-05-21T08:38:30.387Z,14.26
2023-05-21T08:41:28.527Z,14.19
2023-05-21T08:44:14.300Z,14.99
2023-05-21T08:47:02.521Z,14.32
2023-05-21T08:49:51.306Z,15.33
2023-05-21T08:52:37.277Z,15.75
2023-05-21T08:55:23.518Z,14.57
2023-05-21T08:58:10.158Z,14.77
2023-05-21T09:00:58.140Z,15.34
2023-05-21T09:03:46.973Z,16.36
2023-05-21T09:06:32.422Z,15.22
2023-05-21T09:09:33.575Z,15.95
2023-05-21T09:12:19.540Z,16.26
2023-05-21T09:15:05.616Z,16.51
2023-05-21T09:17:53.519Z,16.62
2023-05-21T09:21:19.327Z,16.58
2023-05-21T09:24:05.114Z,16.17
2023-05-21T09:26:50.962Z,16.03
2023-05-21T09:29:36.322Z,16.87
2023-05-21T09:32:21.914Z,16.54
2023-05-21T09:35:13.184Z,17.31
2023-05-21T09:37:58.811Z,16.69
2023-05-21T09:40:45.107Z,17.09
2023-05-21T09:43:31.088Z,17.89
2023-05-21T09:46:20.702Z,16.54
2023-05-21T09:49:06.156Z,17.82
2023-05-21T09:51:55.931Z,16.83
2023-05-21T09:54:41.507Z,16.59
2023-05-21T09:57:27.538Z,16.41
2023-05-21T10:00:23.880Z,17.98
2023-05-21T10:03:11.871Z,17.92
2023-05-21T10:05:59.772Z,18.13
2023-05-21T10:08:48.637Z,17.37
2023-05-21T10:11:36.042Z,16.70
2023-05-21T10:14:23.294Z,17.38
2023-05-21T10:17:09.525Z,17.37
2023-05-21T10:19:56.058Z,18.51
2023-05-21T10:22:42.004Z,18.52
2023-05-21T10:25:30.901Z,17.98
2023-05-21T10:28:17.680Z,19.07
2023-05-21T10:31:04.284Z,19.26
2023-05-21T10:33:51.163Z,19.30
2023-05-21T10:36:38.414Z,19.19
2023-05-21T10:39:24.985Z,18.99
2023-05-21T10:42:24.491Z,19.36
2023-05-21T10:45:28.121Z,19.64
2023-05-21T10:48:15.964Z,19.81
2023-05-21T10:51:13.486Z,20.03
2023-05-21T10:54:36.086Z,19.79
2023-05-21T10:57:49.100Z,19.60
2023-05-21T11:00:35.520Z,19.79
2023-05-21T11:03:22.743Z,19.60
2023-05-21T11:06:08.318Z,19.30
2023-05-21T11:08:55.606Z,19.82
2023-05-21T11:11:43.593Z,18.52
2023-05-21T11:14:36.313Z,19.83
2023-05-21T11:17:40.923Z,19.69
2023-05-21T11:20:34.320Z,19.75
2023-05-21T11:23:23.690Z,19.68
2023-05-21T11:26:09.362Z,19.88
2023-05-21T11:29:08.587Z,20.06
2023-05-21T11:32:02.937Z,19.58
2023-05-21T11:34:50.528Z,19.80
2023-05-21T11:37:38.819Z,20.32
2023-05-21T11:40:27.831Z,20.52
2023-05-21T11:43:13.468Z,20.60
2023-05-21T11:45:59.407Z,20.64
2023-05-21T11:48:46.674Z,17.66
2023-05-21T11:51:32.855Z,20.63
2023-05-21T11:54:19.041Z,20.05
2023-05-21T11:57:08.538Z,19.73
2023-05-21T11:59:54.082Z,19.76
2023-05-21T12:02:45.678Z,19.77
2023-05-21T12:05:31.097Z,19.51
2023-05-21T12:08:23.368Z,20.24
2023-05-21T12:11:09.138Z,20.47
2023-05-21T12:13:54.828Z,20.24
2023-05-21T12:16:41.863Z,21.03
2023-05-21T12:19:27.300Z,20.63
2023-05-21T12:22:13.733Z,20.89
2023-05-21T12:24:59.033Z,20.45
2023-05-21T12:27:44.352Z,20.57
2023-05-21T12:30:29.940Z,19.52
2023-05-21T12:33:15.321Z,19.43
2023-05-21T12:36:00.288Z,19.62
2023-05-21T12:38:45.748Z,19.27
2023-05-21T12:41:30.926Z,20.26
2023-05-21T12:44:16.467Z,20.28
2023-05-21T12:47:03.076Z,20.54
2023-05-21T12:49:48.660Z,19.12
2023-05-21T12:52:34.369Z,20.25
2023-05-21T12:55:23.150Z,19.66
2023-05-21T12:58:13.371Z,20.05
2023-05-21T13:00:58.618Z,20.13
2023-05-21T13:03:45.073Z,20.77
2023-05-21T13:06:30.224Z,20.06
2023-05-21T13:09:15.576Z,20.21
2023-05-21T13:12:01.104Z,21.20
2023-05-21T13:14:46.522Z,21.52
2023-05-21T13:17:31.997Z,20.39
2023-05-21T13:20:19.803Z,21.85
2023-05-21T13:23:07.172Z,20.76
2023-05-21T13:25:54.006Z,21.91
2023-05-21T13:28:41.316Z,21.28
2023-05-21T13:31:28.091Z,22.03
2023-05-21T13:34:13.461Z,21.68
2023-05-21T13:36:58.879Z,20.80
2023-05-21T13:39:44.358Z,21.60
2023-05-21T13:42:29.914Z,20.69
2023-05-21T13:45:17.803Z,21.92
2023-05-21T13:48:03.040Z,21.43
2023-05-21T13:50:48.456Z,21.71
2023-05-21T13:53:33.659Z,21.34
2023-05-21T13:56:18.960Z,21.63
2023-05-21T13:59:04.008Z,21.13
2023-05-21T14:01:49.596Z,21.39
2023-05-21T14:04:36.697Z,21.71
2023-05-21T14:07:23.884Z,20.81
2023-05-21T14:10:09.418Z,21.63
2023-05-21T14:12:59.197Z,21.97
2023-05-21T14:15:49.634Z,20.88
2023-05-21T14:18:35.170Z,21.87
2023-05-21T14:21:20.756Z,21.10
2023-05-21T14:24:06.012Z,21.11
2023-05-21T14:26:51.679Z,20.35
2023-05-21T14:29:36.903Z,20.89
2023-05-21T14:32:22.616Z,20.18
2023-05-21T14:35:08.510Z,20.62
2023-05-21T14:37:53.965Z,19.74
2023-05-21T14:40:39.469Z,20.74
2023-05-21T14:43:25.199Z,19.92
2023-05-21T14:46:10.701Z,20.77
2023-05-21T14:48:56.120Z,20.41
2023-05-21T14:51:41.532Z,20.47
2023-05-21T14:54:26.914Z,21.02
2023-05-21T14:57:12.523Z,21.01
2023-05-21T14:59:58.093Z,20.67
2023-05-21T15:02:44.138Z,20.15
2023-05-21T15:05:29.825Z,21.17
2023-05-21T15:08:14.999Z,21.26
2023-05-21T15:11:00.402Z,20.81
2023-05-21T15:13:45.813Z,20.89
2023-05-21T15:16:31.080Z,20.63
2023-05-21T15:19:16.725Z,20.41
2023-05-21T15:22:02.042Z,18.72
2023-05-21T15:24:47.602Z,19.74
2023-05-21T15:27:33.931Z,20.35
2023-05-21T15:30:19.304Z,20.17
2023-05-21T15:33:04.692Z,20.32
2023-05-21T15:35:50.095Z,20.91
2023-05-21T15:38:35.334Z,20.62
2023-05-21T15:41:20.893Z,21.12
2023-05-21T15:44:06.563Z,20.39
2023-05-21T15:46:52.339Z,20.58
2023-05-21T15:49:37.831Z,20.82
2023-05-21T15:52:23.354Z,20.29
2023-05-21T15:55:09.329Z,20.87
2023-05-21T15:57:55.047Z,19.30
2023-05-21T16:00:40.632Z,21.39
2023-05-21T16:03:26.612Z,21.17
2023-05-21T16:06:12.152Z,20.97
2023-05-21T16:08:58.412Z,20.67
2023-05-21T16:11:43.983Z,21.27
2023-05-21T16:14:29.603Z,20.49
2023-05-21T16:17:15.376Z,20.40
2023-05-21T16:20:00.817Z,21.12
2023-05-21T16:22:46.323Z,20.59
2023-05-21T16:25:32.657Z,20.82
2023-05-21T16:28:18.395Z,20.93
2023-05-21T16:31:04.045Z,20.66
2023-05-21T16:33:49.703Z,20.58
2023-05-21T16:36:35.390Z,20.84
2023-05-21T16:39:21.046Z,20.57
2023-05-21T16:42:06.522Z,20.58
2023-05-21T16:44:52.336Z,19.42
2023-05-21T16:47:37.565Z,19.85
2023-05-21T16:50:22.714Z,20.37
2023-05-21T16:53:08.358Z,20.68
2023-05-21T16:55:54.227Z,20.14
2023-05-21T16:58:39.997Z,19.87
2023-05-21T17:01:25.830Z,19.36
2023-05-21T17:04:11.631Z,19.98
2023-05-21T17:06:57.258Z,18.89
2023-05-21T17:09:42.754Z,20.17
2023-05-21T17:12:28.374Z,20.15
2023-05-21T17:15:13.641Z,18.74
2023-05-21T17:17:58.881Z,19.75
2023-05-21T17:20:44.236Z,19.30
2023-05-21T17:23:29.747Z,19.20
2023-05-21T17:26:15.213Z,19.08
2023-05-21T17:29:00.428Z,19.67
2023-05-21T17:31:45.645Z,19.69
2023-05-21T17:34:31.426Z,18.85
2023-05-21T17:37:16.611Z,19.49
2023-05-21T17:40:02.098Z,19.66
2023-05-21T17:42:47.491Z,18.11
2023-05-21T17:45:32.769Z,18.66
2023-05-21T17:48:18.228Z,18.50
2023-05-21T17:51:03.888Z,18.85
2023-05-21T17:53:49.417Z,19.11
2023-05-21T17:56:34.847Z,18.84
2023-05-21T17:59:20.498Z,18.85
2023-05-21T18:02:05.773Z,18.31
2023-05-21T18:04:51.335Z,18.47
2023-05-21T18:07:37.782Z,18.34
2023-05-21T18:10:23.343Z,18.53
2023-05-21T18:13:09.239Z,18.84
2023-05-21T18:15:54.957Z,18.83
2023-05-21T18:18:40.317Z,18.87
2023-05-21T18:21:25.778Z,18.18
2023-05-21T18:24:11.003Z,18.69
2023-05-21T18:26:56.193Z,18.53
2023-05-21T18:29:41.611Z,18.50
2023-05-21T18:32:27.136Z,18.49
2023-05-21T18:35:14.454Z,18.23
2023-05-21T18:38:01.952Z,18.03
2023-05-21T18:40:47.399Z,18.63
2023-05-21T18:43:32.765Z,18.26
2023-05-21T18:46:17.968Z,18.48
2023-05-21T18:49:03.240Z,18.28
2023-05-21T18:51:48.613Z,17.03
2023-05-21T18:54:34.313Z,17.72
2023-05-21T18:57:20.671Z,17.97
2023-05-21T19:00:08.036Z,17.95
2023-05-21T19:02:53.804Z,17.72
2023-05-21T19:05:39.225Z,17.56
2023-05-21T19:08:24.661Z,17.87
2023-05-21T19:11:09.939Z,18.09
2023-05-21T19:13:55.491Z,17.82
2023-05-21T19:16:40.907Z,17.47
2023-05-21T19:19:26.777Z,18.06
2023-05-21T19:22:12.141Z,17.55
2023-05-21T19:24:57.775Z,17.94
2023-05-21T19:27:43.472Z,18.16
2023-05-21T19:30:31.607Z,16.65
2023-05-21T19:33:17.105Z,16.99
2023-05-21T19:36:02.959Z,17.32
2023-05-21T19:38:49.423Z,17.51
2023-05-21T19:41:34.774Z,17.71
2023-05-21T19:44:20.271Z,18.22
2023-05-21T19:47:06.427Z,17.62
2023-05-21T19:49:51.658Z,17.21
2023-05-21T19:52:38.584Z,18.25
2023-05-21T19:55:24.312Z,18.07
2023-05-21T19:58:09.583Z,16.25
2023-05-21T20:00:55.127Z,17.99
2023-05-21T20:03:40.672Z,17.61
2023-05-21T20:06:26.344Z,17.95
2023-05-21T20:09:12.560Z,16.49
2023-05-21T20:11:57.922Z,17.38
2023-05-21T20:14:43.391Z,16.86
2023-05-21T20:17:29.231Z,18.09
2023-05-21T20:20:14.657Z,17.90
2023-05-21T20:23:00.196Z,17.61
2023-05-21T20:25:45.490Z,17.51
2023-05-21T20:28:30.679Z,16.33
2023-05-21T20:31:16.187Z,17.51
2023-05-21T20:34:01.592Z,17.84
2023-05-21T20:36:46.830Z,17.36
2023-05-21T20:39:32.356Z,16.58
2023-05-21T20:42:17.731Z,17.38
2023-05-21T20:45:03.729Z,16.53
2023-05-21T20:47:49.327Z,17.27
2023-05-21T20:50:35.324Z,17.16
2023-05-21T20:53:20.754Z,16.91
2023-05-21T20:56:06.983Z,17.21
2023-05-21T20:58:52.513Z,16.59
2023-05-21T21:01:38.112Z,16.69
2023-05-21T21:04:23.615Z,16.59
2023-05-21T21:07:08.830Z,16.58
2023-05-21T21:09:54.662Z,16.69
2023-05-21T21:12:40.143Z,16.74
2023-05-21T21:15:25.361Z,15.19
2023-05-21T21:18:11.281Z,16.08
2023-05-21T21:20:56.613Z,15.75
2023-05-21T21:23:41.977Z,16.06
2023-05-21T21:26:27.543Z,15.88
2023-05-21T21:29:13.244Z,15.23
2023-05-21T21:31:58.403Z,16.15
2023-05-21T21:34:43.642Z,15.96
2023-05-21T21:37:29.221Z,16.07
2023-05-21T21:40:14.822Z,14.60
2023-05-21T21:43:01.604Z,16.31
2023-05-21T21:45:46.997Z,15.91
2023-05-21T21:48:32.612Z,15.99
2023-05-21T21:51:19.644Z,15.77
2023-05-21T21:54:06.362Z,14.53
2023-05-21T21:56:51.963Z,15.89
2023-05-21T21:59:38.170Z,16.02
2023-05-21T22:02:23.644Z,14.77
2023-05-21T22:05:10.003Z,15.04
2023-05-21T22:07:55.081Z,15.40
2023-05-21T22:10:40.866Z,15.88
2023-05-21T22:13:27.855Z,13.73
2023-05-21T22:16:14.605Z,15.10
2023-05-21T22:19:00.469Z,15.49
2023-05-21T22:21:46.071Z,14.79
2023-05-21T22:24:33.129Z,14.85
2023-05-21T22:27:19.022Z,14.44
2023-05-21T22:30:05.457Z,15.34
2023-05-21T22:32:50.712Z,14.17
2023-05-21T22:35:35.863Z,14.65
2023-05-21T22:38:21.296Z,15.02
2023-05-21T22:41:06.941Z,13.63
2023-05-21T22:43:52.611Z,14.92
2023-05-21T22:46:37.830Z,14.67
2023-05-21T22:49:23.487Z,14.14
2023-05-21T22:52:08.873Z,14.81
2023-05-21T22:54:54.344Z,14.01
2023-05-21T22:57:39.660Z,14.79
2023-05-21T23:00:25.199Z,13.58
2023-05-21T23:03:10.532Z,14.58
2023-05-21T23:05:56.128Z,14.45
2023-05-21T23:08:41.741Z,14.24
2023-05-21T23:11:27.069Z,14.21
2023-05-21T23:14:12.615Z,14.20
2023-05-21T23:16:57.902Z,14.45
2023-05-21T23:19:43.427Z,14.42
2023-05-21T23:22:29.465Z,14.61
2023-05-21T23:25:14.813Z,13.92
2023-05-21T23:28:00.427Z,13.49
2023-05-21T23:30:45.872Z,13.19
2023-05-21T23:33:31.381Z,14.14
2023-05-21T23:36:17.011Z,14.14
2023-05-21T23:39:02.741Z,14.60
2023-05-21T23:41:48.895Z,14.17
2023-05-21T23:44:34.289Z,14.07
2023-05-21T23:47:19.437Z,14.04
2023-05-21T23:50:05.180Z,13.51
2023-05-21T23:52:50.678Z,14.20
2023-05-21T23:55:36.193Z,13.73
2023-05-21T23:58:21.220Z,13.01
